Detall de PIREP

Printer-friendly versionPDF version

[2013/03/20 16:18:00]
Flight IATA:CT3225
Pilot Number:012
Company ICAO:CAT
Aircraft Type:A320/E
PAX:150
Departing Airport: LJLJ
Destination Airport: LEPA
Alternate Airport:LEBL
Online: VATSIM
Route:RIFEN UM196 LAGEN UM859 VAMTU UM984 DIVKO UN852 VERSO UL129 LUNIK
Flight Level:F350
No Slew and time accel
No pause
Crash detect
Detect pilot in Cockpit between each 30 and 45 minutes
16:18 Zero fuel Weight: 126422 Lbs, Fuel Weight: 20149 Lbs
16:18 VATSIM:LJLJ 201600Z 28005KT 240V310 9999 FEW055 SCT068 BKN250 11/02 Q1005 NOSIG
16:18 VATSIM:LEPA 201600Z 07013KT 040V100 9999 FEW018 BKN032 16/06 Q1013 NOSIG
16:18 VOICE CATALONIAN
16:19 Parking Brakes off
16:25 Take-off
16:25 Take off Weight: 145780 Lbs
16:25 Wind: 273º @ 005 Knots Heading: 305º
16:25 POS N46º 13´ 38´´ E014º 27´ 01´´
16:25 Gear Up: 174 Knots
16:25 Flaps:3 at 174 Knots
16:25 Flaps:2 at 192 Knots
16:25 Flaps:1 at 199 Knots
16:25 Flaps:0 at 218 Knots
16:40 Wind:238º@062 Knots Heading: 250º Ground Speed: 389 Knots Altitude 32746 ft
16:41 TOC
16:41 Fuel Weight: 15554 Lb
16:55 Wind:239º@062 Knots Heading: 249º Ground Speed: 384 Knots Altitude 34776 ft
17:10 Wind:237º@057 Knots Heading: 249º Ground Speed: 389 Knots Altitude 34776 ft
17:25 Wind:252º@046 Knots Heading: 234º Ground Speed: 403 Knots Altitude 34760 ft
17:40 Wind:267º@047 Knots Heading: 235º Ground Speed: 407 Knots Altitude 34842 ft
17:51 TOD
17:51 Fuel Weight: 9141 Lb
17:55 Wind:288º@039 Knots Heading: 208º Ground Speed: 392 Knots Altitude 25859 ft
18:10 Wind:344º@020 Knots Heading: 217º Ground Speed: 274 Knots Altitude 4025 ft
18:12 Flaps:1 at 203 Knots
18:12 Flaps:3 at 200 Knots
18:13 Flaps:4 at 170 Knots
18:13 Gear Down: 168 Knots
18:13 Flaps:5 at 152 Knots
18:16 TouchDown:Rate -207 ft/min Speed: 136Knots
18:17 VATSIM:LEPA 201800Z 12003KT 090V150 9999 FEW020 13/08 Q1016 NOSIG
18:17 Land
18:17 Wind:083º@006 Knots
18:17 Heading: 237º
18:17 Flight Duration: 01:52
18:17 Landing Weight: 133729 Lbs
18:17 POS N39º 32´ 50´´ E002º 44´ 39´´
18:19 Parking brakes on
18:19 Block to Block Duration: 02:00
18:19 Final Fuel: 7145 Lbls
18:19 Spent Fuel: 13004 Lbls
18:19 Flight Length: 689 NM
18:19 TOD Land Length: 128 NM

Exportar CSV

Powered by Drupal - Modified by Danger4k